Time;durP1;ratioP1;P1;durP2;ratioP2;P2;SDS_P1;SDS_P2;PMS_P1;PMS_P2;Temp;Humidity;BMP_temperature;BMP_pressure;BME280_temperature;BME280_humidity;BME280_pressure;Samples;Min_cycle;Max_cycle;Signal;HPM_P1;HPM_P2
2022/12/19 00:02:17;;;;;;;42.40;15.63;;;-4.50;99.90;;;;;;5254431;28;20440;-48
2022/12/19 00:04:47;;;;;;;39.17;16.67;;;-4.50;99.90;;;;;;5259223;28;20247;-49
2022/12/19 00:07:18;;;;;;;36.30;16.50;;;-4.40;99.90;;;;;;5265162;28;20201;-48
2022/12/19 00:09:49;;;;;;;45.23;18.33;;;-4.50;99.90;;;;;;5253537;28;20170;-48
2022/12/19 00:12:19;;;;;;;40.83;16.77;;;-4.40;99.90;;;;;;5260907;28;20529;-49
2022/12/19 00:14:50;;;;;;;34.70;15.90;;;-4.50;99.90;;;;;;5261280;28;20193;-47
2022/12/19 00:17:21;;;;;;;35.17;16.30;;;-4.40;99.90;;;;;;5256550;28;20178;-48
2022/12/19 00:19:52;;;;;;;37.87;17.30;;;-4.40;99.90;;;;;;5261522;28;20724;-48
2022/12/19 00:22:22;;;;;;;36.70;17.40;;;-4.40;99.90;;;;;;5255308;28;20528;-49
2022/12/19 00:24:53;;;;;;;50.10;15.97;;;-4.40;99.90;;;;;;5260359;28;20237;-48
2022/12/19 00:27:24;;;;;;;29.93;14.53;;;-4.40;99.90;;;;;;5256264;28;20593;-49
2022/12/19 00:29:54;;;;;;;32.80;14.87;;;-4.40;99.90;;;;;;5257512;28;20182;-47
2022/12/19 00:32:25;;;;;;;36.63;16.33;;;-4.40;99.90;;;;;;5258566;28;20174;-48
2022/12/19 00:34:55;;;;;;;34.80;16.60;;;-4.30;99.90;;;;;;5253723;28;20205;-47
2022/12/19 00:37:26;;;;;;;34.50;15.57;;;-4.40;99.90;;;;;;5260823;28;20673;-48
2022/12/19 00:39:57;;;;;;;33.90;15.37;;;-4.30;99.90;;;;;;5257354;28;20182;-48
2022/12/19 00:42:27;;;;;;;30.70;15.10;;;-4.30;99.90;;;;;;5249990;28;20677;-50
2022/12/19 00:44:58;;;;;;;34.33;16.20;;;-4.30;99.90;;;;;;5264408;28;20223;-49
2022/12/19 00:47:29;;;;;;;35.93;16.67;;;-4.20;99.90;;;;;;5262354;28;20230;-50
2022/12/19 00:49:59;;;;;;;31.93;14.57;;;-4.30;99.90;;;;;;5262822;28;20174;-47
2022/12/19 00:52:30;;;;;;;44.83;17.90;;;-4.30;99.90;;;;;;5261673;28;20594;-49
2022/12/19 00:55:01;;;;;;;35.00;16.60;;;-4.30;99.90;;;;;;5262310;28;20219;-51
2022/12/19 00:57:31;;;;;;;42.73;15.80;;;-4.30;99.90;;;;;;5272088;28;20192;-49
2022/12/19 01:00:03;;;;;;;37.53;14.73;;;-4.20;99.90;;;;;;5268125;28;20230;-48
2022/12/19 01:02:33;;;;;;;39.10;16.20;;;-4.20;99.90;;;;;;5262397;28;20181;-49
2022/12/19 01:05:05;;;;;;;40.53;15.10;;;-4.30;99.90;;;;;;5267742;28;20506;-50
2022/12/19 01:07:35;;;;;;;30.23;15.27;;;-4.20;99.90;;;;;;5276711;28;20526;-50
2022/12/19 01:10:06;;;;;;;46.77;14.83;;;-4.20;99.90;;;;;;5270354;28;20476;-48
2022/12/19 01:12:46;;;;;;;40.20;15.13;;;-4.20;99.90;;;;;;5267151;28;20181;-50
2022/12/19 01:15:19;;;;;;;35.37;15.30;;;-4.20;99.90;;;;;;5259905;28;20531;-50
2022/12/19 01:17:50;;;;;;;32.43;14.60;;;-4.20;99.90;;;;;;5260046;28;20829;-49
2022/12/19 01:20:21;;;;;;;32.73;14.17;;;-4.10;99.90;;;;;;5264807;28;20484;-50
2022/12/19 01:22:52;;;;;;;34.53;15.30;;;-4.10;99.90;;;;;;5245228;28;20485;-49
2022/12/19 01:25:22;;;;;;;34.67;15.27;;;-4.10;99.90;;;;;;5260629;28;20980;-49
2022/12/19 01:27:54;;;;;;;30.33;15.43;;;-4.10;99.90;;;;;;5265542;28;20182;-48
2022/12/19 01:30:26;;;;;;;35.33;14.30;;;-4.10;99.90;;;;;;5257269;28;20646;-50
2022/12/19 01:32:57;;;;;;;31.37;15.57;;;-4.10;99.90;;;;;;5254912;28;20435;-50
2022/12/19 01:35:28;;;;;;;30.33;14.40;;;-4.10;99.90;;;;;;5257690;28;20431;-50
2022/12/19 01:37:58;;;;;;;36.80;15.73;;;-4.10;99.90;;;;;;5264934;28;20424;-50
2022/12/19 01:40:29;;;;;;;28.97;14.53;;;-4.10;99.90;;;;;;5255314;28;20162;-49
2022/12/19 01:43:01;;;;;;;30.83;14.87;;;-4.10;99.90;;;;;;5250660;28;20220;-51
2022/12/19 01:45:34;;;;;;;31.17;14.30;;;-4.00;99.90;;;;;;5261376;28;20946;-48
2022/12/19 01:48:22;;;;;;;44.37;16.50;;;-4.10;99.90;;;;;;5266208;28;23748;-48
2022/12/19 01:50:58;;;;;;;31.70;14.63;;;-4.00;99.90;;;;;;5265354;28;20784;-49
2022/12/19 01:53:42;;;;;;;34.47;15.10;;;-4.00;99.90;;;;;;5256607;28;20448;-49
2022/12/19 01:56:12;;;;;;;28.23;13.57;;;-4.00;99.90;;;;;;5262081;28;20417;-48
2022/12/19 01:58:47;;;;;;;29.33;13.90;;;-4.10;99.90;;;;;;5262280;28;20481;-46
2022/12/19 02:01:18;;;;;;;37.77;16.27;;;-4.00;99.90;;;;;;5257175;28;20470;-47
2022/12/19 02:03:49;;;;;;;41.73;15.27;;;-4.00;99.90;;;;;;5248878;28;20494;-48
2022/12/19 02:06:21;;;;;;;32.70;14.47;;;-4.00;99.90;;;;;;5260223;28;20792;-50
2022/12/19 02:08:52;;;;;;;35.10;16.43;;;-4.00;99.90;;;;;;5262312;28;20962;-46
2022/12/19 02:11:23;;;;;;;43.03;16.40;;;-4.00;99.90;;;;;;5264631;28;20439;-48
2022/12/19 02:13:54;;;;;;;31.50;15.20;;;-3.90;99.90;;;;;;5262554;28;20548;-46
2022/12/19 02:16:46;;;;;;;35.27;16.43;;;-4.00;99.90;;;;;;5263906;28;20216;-49
2022/12/19 02:19:41;;;;;;;38.07;16.43;;;-4.00;99.90;;;;;;5261055;28;20189;-46
2022/12/19 02:22:36;;;;;;;36.67;15.17;;;-4.00;99.90;;;;;;5261272;28;20435;-48
2022/12/19 02:25:10;;;;;;;30.53;15.17;;;-3.90;99.90;;;;;;5270594;28;20459;-49
2022/12/19 02:28:14;;;;;;;34.90;15.87;;;-3.90;99.90;;;;;;5267601;28;20434;-48
2022/12/19 02:31:06;;;;;;;38.23;17.03;;;-3.90;99.90;;;;;;5257626;28;20434;-49
2022/12/19 02:34:05;;;;;;;35.07;17.57;;;-3.90;99.90;;;;;;5264836;28;20509;-48
2022/12/19 02:36:56;;;;;;;33.67;14.87;;;-3.90;99.90;;;;;;5261390;28;20446;-48
2022/12/19 02:39:49;;;;;;;36.23;16.07;;;-3.90;99.90;;;;;;5268770;28;20431;-52
2022/12/19 02:42:54;;;;;;;34.53;14.40;;;-3.90;99.90;;;;;;5243373;28;20461;-46
2022/12/19 02:45:29;;;;;;;34.27;15.90;;;-3.90;99.90;;;;;;5257333;28;20563;-48
2022/12/19 02:48:02;;;;;;;40.80;16.50;;;-3.90;99.90;;;;;;5260224;28;20450;-47
2022/12/19 02:50:42;;;;;;;37.03;17.70;;;-3.90;99.90;;;;;;5257329;28;20935;-47
2022/12/19 02:53:14;;;;;;;30.23;15.80;;;-3.90;99.90;;;;;;5262912;28;20475;-47
2022/12/19 02:55:48;;;;;;;35.33;16.40;;;-4.00;99.90;;;;;;5267214;28;20489;-48
2022/12/19 02:58:52;;;;;;;35.03;16.70;;;-3.90;99.90;;;;;;5266812;28;20448;-45
2022/12/19 03:01:32;;;;;;;45.70;16.63;;;-3.90;99.90;;;;;;5263781;28;20453;-49
2022/12/19 03:04:09;;;;;;;49.93;20.50;;;-3.90;99.90;;;;;;5258062;28;20476;-49
2022/12/19 03:07:16;;;;;;;31.70;16.07;;;-4.00;99.90;;;;;;5267724;28;20992;-49
2022/12/19 03:09:57;;;;;;;34.13;16.70;;;-4.00;99.90;;;;;;5265093;28;20446;-50
2022/12/19 03:12:39;;;;;;;32.77;15.33;;;-3.90;99.90;;;;;;5277698;27;20930;-49
2022/12/19 03:15:12;;;;;;;41.50;18.43;;;-3.90;99.90;;;;;;5263126;28;20482;-47
2022/12/19 03:17:43;;;;;;;30.23;16.10;;;-4.00;99.90;;;;;;5256611;28;20433;-47
2022/12/19 03:20:46;;;;;;;35.67;16.77;;;-4.00;99.90;;;;;;5266553;28;20443;-47
2022/12/19 03:23:17;;;;;;;31.13;15.60;;;-3.90;99.90;;;;;;5234151;28;20863;-49
2022/12/19 03:25:55;;;;;;;36.43;16.27;;;-3.90;99.90;;;;;;5263917;28;20465;-49
2022/12/19 03:28:35;;;;;;;44.83;18.00;;;-3.90;99.90;;;;;;5263223;28;20424;-47
2022/12/19 03:31:08;;;;;;;45.63;17.20;;;-3.90;99.90;;;;;;5261933;28;20515;-49
2022/12/19 03:33:40;;;;;;;48.33;17.30;;;-3.90;99.90;;;;;;5264471;28;20826;-47
2022/12/19 03:36:17;;;;;;;38.93;16.63;;;-3.80;99.90;;;;;;5258218;28;20427;-50
2022/12/19 03:38:48;;;;;;;37.83;17.20;;;-3.90;99.90;;;;;;5262391;28;20478;-46
2022/12/19 03:43:07;;;;;;;36.07;16.87;;;-3.80;99.90;;;;;;5261129;28;20446;-49
2022/12/19 03:44:13;;;;;;;45.37;17.57;;;-3.90;99.90;;;;;;5259937;28;20482;-49
2022/12/19 03:46:51;;;;;;;33.97;16.37;;;-3.90;99.90;;;;;;5262519;28;20510;-48
2022/12/19 03:49:21;;;;;;;37.47;17.60;;;-4.00;99.90;;;;;;5266505;28;20490;-47
2022/12/19 03:52:16;;;;;;;51.27;20.13;;;-3.90;99.90;;;;;;5261769;28;20433;-46
2022/12/19 03:55:31;;;;;;;43.73;17.07;;;-3.90;99.90;;;;;;5261782;28;20211;-48
2022/12/19 03:58:17;;;;;;;44.90;17.47;;;-3.90;99.90;;;;;;5264148;28;20440;-48
2022/12/19 04:00:50;;;;;;;33.10;16.00;;;-3.90;99.90;;;;;;5259110;28;20451;-48
2022/12/19 04:03:22;;;;;;;45.53;17.93;;;-3.80;99.90;;;;;;5258853;28;20485;-48
2022/12/19 04:05:54;;;;;;;37.33;17.10;;;-3.80;99.90;;;;;;5264536;28;21012;-48
2022/12/19 04:08:26;;;;;;;40.90;18.90;;;-3.80;99.90;;;;;;5260069;28;20841;-47
2022/12/19 04:11:04;;;;;;;42.07;16.50;;;-3.80;99.90;;;;;;5265878;28;20544;-48
2022/12/19 04:13:44;;;;;;;41.40;18.80;;;-3.80;99.90;;;;;;5265409;28;20467;-50
2022/12/19 04:16:33;;;;;;;38.00;17.17;;;-3.80;99.90;;;;;;5268808;28;20538;-48
2022/12/19 04:19:14;;;;;;;38.53;18.33;;;-3.80;99.90;;;;;;5262134;28;20434;-46
2022/12/19 04:21:51;;;;;;;44.97;18.10;;;-3.80;99.90;;;;;;5264916;28;20478;-46
2022/12/19 04:24:28;;;;;;;53.73;20.37;;;-3.80;99.90;;;;;;5261134;28;20463;-46
2022/12/19 04:27:00;;;;;;;43.97;19.13;;;-3.80;99.90;;;;;;5262694;28;20525;-49
2022/12/19 04:29:34;;;;;;;38.53;18.47;;;-3.80;99.90;;;;;;5280090;28;20427;-50
2022/12/19 04:32:07;;;;;;;33.30;17.20;;;-3.70;99.90;;;;;;5263562;28;20446;-46
2022/12/19 04:34:37;;;;;;;41.57;18.77;;;-3.80;99.90;;;;;;5262732;28;20830;-49
2022/12/19 04:37:09;;;;;;;54.50;20.53;;;-3.80;99.90;;;;;;5265598;28;20453;-46
2022/12/19 04:39:40;;;;;;;37.03;18.80;;;-3.80;99.90;;;;;;5257784;28;20214;-48
2022/12/19 04:42:10;;;;;;;35.23;17.70;;;-3.70;99.90;;;;;;5261761;28;20761;-46
2022/12/19 04:44:41;;;;;;;35.83;16.57;;;-3.80;99.90;;;;;;5265516;28;20226;-48
2022/12/19 04:47:12;;;;;;;42.67;18.57;;;-3.80;99.90;;;;;;5266378;28;20177;-47
2022/12/19 04:49:42;;;;;;;40.97;17.57;;;-3.70;99.90;;;;;;5267278;28;20223;-50
2022/12/19 04:52:13;;;;;;;41.10;18.63;;;-3.70;99.90;;;;;;5265794;28;20285;-48
2022/12/19 04:54:44;;;;;;;41.40;18.90;;;-3.70;99.90;;;;;;5256000;28;20241;-50
2022/12/19 04:57:14;;;;;;;36.57;17.67;;;-3.60;99.90;;;;;;5273246;28;20186;-46
2022/12/19 04:59:45;;;;;;;44.57;18.47;;;-3.60;99.90;;;;;;5259010;28;20189;-48
2022/12/19 05:02:16;;;;;;;36.80;18.07;;;-3.60;99.90;;;;;;5261043;28;20194;-48
2022/12/19 05:04:46;;;;;;;44.80;17.80;;;-3.70;99.90;;;;;;5257036;28;20323;-47
2022/12/19 05:07:18;;;;;;;37.43;18.60;;;-3.70;99.90;;;;;;5251487;28;20619;-48
2022/12/19 05:09:49;;;;;;;41.83;17.80;;;-3.60;99.90;;;;;;5250260;28;20182;-48
2022/12/19 05:12:19;;;;;;;36.03;17.20;;;-3.60;99.90;;;;;;5242094;28;20439;-47
2022/12/19 05:14:50;;;;;;;40.97;17.80;;;-3.70;99.90;;;;;;5260389;28;20213;-47
2022/12/19 05:17:21;;;;;;;44.63;18.47;;;-3.70;99.90;;;;;;5262009;28;20185;-48
2022/12/19 05:19:51;;;;;;;46.73;19.90;;;-3.70;99.90;;;;;;5261956;28;20560;-46
2022/12/19 05:22:22;;;;;;;41.77;20.60;;;-3.80;99.90;;;;;;5258351;28;20220;-47
2022/12/19 05:24:52;;;;;;;34.03;16.47;;;-3.80;99.90;;;;;;5258661;28;20214;-52
2022/12/19 05:27:23;;;;;;;36.70;17.90;;;-3.80;99.90;;;;;;5259831;28;20190;-47
2022/12/19 05:29:54;;;;;;;38.60;16.67;;;-3.80;99.90;;;;;;5261389;28;20279;-48
2022/12/19 05:32:24;;;;;;;40.10;19.43;;;-3.70;99.90;;;;;;5257662;28;20594;-47
2022/12/19 05:34:55;;;;;;;46.27;18.30;;;-3.70;99.90;;;;;;5258303;28;20639;-46
2022/12/19 05:37:26;;;;;;;35.23;18.30;;;-3.70;99.90;;;;;;5262927;28;20280;-47
2022/12/19 05:39:56;;;;;;;43.97;18.17;;;-3.70;99.90;;;;;;5260595;28;20184;-46
2022/12/19 05:42:27;;;;;;;48.50;19.33;;;-3.70;99.90;;;;;;5265850;28;20219;-46
2022/12/19 05:44:58;;;;;;;44.63;19.03;;;-3.60;99.90;;;;;;5269124;28;20278;-46
2022/12/19 05:47:28;;;;;;;33.47;15.93;;;-3.60;99.90;;;;;;5265934;28;20247;-52
2022/12/19 05:49:59;;;;;;;47.40;18.60;;;-3.50;99.90;;;;;;5260628;28;20615;-48
2022/12/19 05:52:30;;;;;;;39.60;18.20;;;-3.50;99.90;;;;;;5269081;28;20268;-49
2022/12/19 05:55:01;;;;;;;35.57;17.70;;;-3.40;99.90;;;;;;5264339;28;20271;-48
2022/12/19 05:57:32;;;;;;;37.80;17.23;;;-3.30;99.90;;;;;;5266905;28;20441;-47
2022/12/19 06:00:07;;;;;;;40.20;17.87;;;-3.20;99.90;;;;;;5264764;28;20275;-49
2022/12/19 06:02:37;;;;;;;37.60;18.30;;;-3.30;99.90;;;;;;5256723;28;20658;-47
2022/12/19 06:05:08;;;;;;;47.23;19.23;;;-3.10;99.90;;;;;;5261003;28;20537;-49
2022/12/19 06:07:39;;;;;;;42.13;18.00;;;-3.30;99.90;;;;;;5267727;28;20244;-46
2022/12/19 06:10:10;;;;;;;36.57;16.73;;;-3.20;99.90;;;;;;5259128;28;21126;-48
2022/12/19 06:12:40;;;;;;;34.00;17.20;;;-3.10;99.90;;;;;;5267778;28;20187;-46
2022/12/19 06:15:13;;;;;;;38.50;17.60;;;-3.10;99.90;;;;;;5270564;28;20182;-49
2022/12/19 06:17:43;;;;;;;32.40;16.63;;;-3.10;99.90;;;;;;5259736;28;20668;-47
2022/12/19 06:20:14;;;;;;;36.33;17.43;;;-3.20;99.90;;;;;;5260375;28;20448;-47
2022/12/19 06:22:44;;;;;;;40.73;17.53;;;-3.10;99.90;;;;;;5248368;28;20218;-47
2022/12/19 06:25:15;;;;;;;35.47;16.83;;;-3.10;99.90;;;;;;5254162;28;21832;-48
2022/12/19 06:27:46;;;;;;;43.50;18.77;;;-3.10;99.90;;;;;;5258242;28;20211;-47
2022/12/19 06:30:16;;;;;;;39.87;18.77;;;-3.20;99.90;;;;;;5264201;28;20607;-49
2022/12/19 06:32:47;;;;;;;40.67;17.70;;;-3.10;99.90;;;;;;5262999;28;20199;-48
2022/12/19 06:35:18;;;;;;;39.10;16.80;;;-3.10;99.90;;;;;;5267093;28;20190;-49
2022/12/19 06:37:49;;;;;;;38.67;17.60;;;-3.10;99.90;;;;;;5263095;28;20270;-49
2022/12/19 06:42:21;;;;;;;38.17;18.00;;;-3.00;99.90;;;;;;5264837;28;20199;-49
2022/12/19 06:43:10;;;;;;;35.70;16.00;;;-3.10;99.90;;;;;;5259835;28;20218;-49
2022/12/19 06:45:41;;;;;;;36.00;17.40;;;-3.00;99.90;;;;;;5264550;28;20559;-49
2022/12/19 06:48:11;;;;;;;36.70;16.07;;;-3.00;99.90;;;;;;5257804;28;20188;-50
2022/12/19 06:50:42;;;;;;;36.30;17.77;;;-3.10;99.90;;;;;;5264581;28;20277;-49
2022/12/19 06:53:13;;;;;;;35.93;16.03;;;-3.00;99.90;;;;;;5261869;28;20200;-47
2022/12/19 06:55:46;;;;;;;35.63;17.83;;;-2.90;99.90;;;;;;5258830;28;20240;-48
2022/12/19 06:58:17;;;;;;;41.00;18.17;;;-2.80;99.90;;;;;;5257759;28;20185;-48
2022/12/19 07:00:48;;;;;;;32.03;17.70;;;-2.90;99.90;;;;;;5257806;28;20487;-47
2022/12/19 07:03:24;;;;;;;40.53;17.53;;;-2.90;99.90;;;;;;5256591;28;20197;-47
2022/12/19 07:05:54;;;;;;;37.20;16.07;;;-3.00;99.90;;;;;;5259102;28;20419;-48
2022/12/19 07:08:28;;;;;;;41.20;19.50;;;-2.80;99.90;;;;;;5261002;28;20434;-50
2022/12/19 07:10:59;;;;;;;44.57;17.20;;;-2.70;99.90;;;;;;5264676;28;20192;-47
2022/12/19 07:13:29;;;;;;;35.83;15.80;;;-2.70;99.90;;;;;;5257863;28;20830;-51
2022/12/19 07:16:02;;;;;;;38.20;16.90;;;-2.70;99.90;;;;;;5248955;28;20194;-48
2022/12/19 07:18:36;;;;;;;38.23;16.83;;;-2.60;99.90;;;;;;5258615;28;20195;-49
2022/12/19 07:21:10;;;;;;;32.63;15.27;;;-2.50;99.90;;;;;;5256063;28;20440;-49
2022/12/19 07:23:41;;;;;;;46.13;17.00;;;-2.50;99.90;;;;;;5254166;28;20475;-47
2022/12/19 07:26:12;;;;;;;43.03;18.87;;;-2.60;99.90;;;;;;5268342;28;20426;-48
2022/12/19 07:28:43;;;;;;;41.20;16.77;;;-2.60;99.90;;;;;;5266263;28;20422;-47
2022/12/19 07:31:14;;;;;;;36.07;16.97;;;-2.60;99.90;;;;;;5258885;28;20184;-51
2022/12/19 07:33:44;;;;;;;38.77;16.10;;;-2.60;99.90;;;;;;5258868;28;20465;-45
2022/12/19 07:36:15;;;;;;;38.83;17.10;;;-2.60;99.90;;;;;;5266427;28;20321;-48
2022/12/19 07:38:45;;;;;;;36.17;17.30;;;-2.50;99.90;;;;;;5258139;28;20174;-50
2022/12/19 07:41:16;;;;;;;32.63;16.60;;;-2.50;99.90;;;;;;5255792;28;20169;-47
2022/12/19 07:43:47;;;;;;;47.40;16.67;;;-2.40;99.90;;;;;;5260679;28;20206;-48
2022/12/19 07:46:18;;;;;;;38.07;16.87;;;-2.40;99.90;;;;;;5257789;28;20806;-48
2022/12/19 07:48:49;;;;;;;33.33;16.27;;;-2.30;99.90;;;;;;5259967;28;20185;-49
2022/12/19 07:51:20;;;;;;;39.80;15.83;;;-2.20;99.90;;;;;;5254111;28;20176;-51
2022/12/19 07:53:50;;;;;;;46.20;17.40;;;-2.10;99.90;;;;;;5252277;28;20833;-46
2022/12/19 07:56:21;;;;;;;32.73;15.90;;;-2.00;99.90;;;;;;5258554;28;20545;-48
2022/12/19 07:58:51;;;;;;;36.87;16.20;;;-1.80;99.90;;;;;;5252575;28;20177;-48
2022/12/19 08:01:22;;;;;;;30.17;15.87;;;-1.70;99.90;;;;;;5268789;28;20209;-48
2022/12/19 08:03:54;;;;;;;38.27;16.93;;;-1.60;99.90;;;;;;5254920;28;20209;-49
2022/12/19 08:06:25;;;;;;;53.50;17.03;;;-1.50;99.90;;;;;;5255823;28;20174;-47
2022/12/19 08:08:56;;;;;;;39.00;16.23;;;-1.50;99.90;;;;;;5249393;28;20784;-49
2022/12/19 08:11:28;;;;;;;34.87;15.90;;;-1.50;99.90;;;;;;5257587;28;21528;-47
2022/12/19 08:13:59;;;;;;;34.63;15.27;;;-1.50;99.90;;;;;;5256942;28;20509;-49
2022/12/19 08:16:30;;;;;;;35.03;16.20;;;-1.60;99.90;;;;;;5257843;28;20934;-47
2022/12/19 08:19:01;;;;;;;36.77;17.63;;;-1.60;99.90;;;;;;5258811;28;20855;-50
2022/12/19 08:21:31;;;;;;;35.67;15.43;;;-1.70;99.90;;;;;;5259142;28;20197;-48
2022/12/19 08:24:02;;;;;;;35.93;16.07;;;-1.60;99.90;;;;;;5257428;28;20486;-46
2022/12/19 08:26:33;;;;;;;42.63;16.50;;;-1.70;99.90;;;;;;5257861;28;20196;-49
2022/12/19 08:29:04;;;;;;;31.63;14.83;;;-1.80;99.90;;;;;;5258362;28;20454;-50
2022/12/19 08:31:34;;;;;;;33.50;14.43;;;-1.60;99.90;;;;;;5264246;28;20220;-49
2022/12/19 08:34:05;;;;;;;33.77;15.03;;;-1.70;99.90;;;;;;5262118;28;20288;-50
2022/12/19 08:36:38;;;;;;;27.73;14.17;;;-1.50;99.90;;;;;;5255337;28;20444;-48
2022/12/19 08:39:10;;;;;;;34.33;15.97;;;-1.30;99.90;;;;;;5256868;28;20619;-47
2022/12/19 08:41:40;;;;;;;38.70;16.70;;;-1.30;99.90;;;;;;5258483;28;20811;-50
2022/12/19 08:44:12;;;;;;;32.07;14.60;;;-1.20;99.90;;;;;;5257637;28;20471;-52
2022/12/19 08:46:42;;;;;;;34.73;15.37;;;-1.10;99.90;;;;;;5255813;28;20188;-49
2022/12/19 08:49:14;;;;;;;41.67;15.30;;;-1.00;99.90;;;;;;5257713;28;20427;-50
2022/12/19 08:51:45;;;;;;;33.73;15.30;;;-1.00;99.90;;;;;;5268386;28;20189;-50
2022/12/19 08:54:16;;;;;;;36.17;13.97;;;-1.00;99.90;;;;;;5254630;28;20482;-48
2022/12/19 08:56:47;;;;;;;34.10;15.07;;;-1.00;99.90;;;;;;5255518;28;20444;-48
2022/12/19 08:59:18;;;;;;;40.70;15.87;;;-0.90;99.90;;;;;;5261836;28;20191;-48
2022/12/19 09:01:48;;;;;;;30.00;14.40;;;-0.90;99.90;;;;;;5251369;28;20193;-50
2022/12/19 09:04:19;;;;;;;35.33;15.53;;;-0.90;99.90;;;;;;5254032;28;20256;-49
2022/12/19 09:06:49;;;;;;;32.03;14.87;;;-0.80;99.90;;;;;;5254085;28;20669;-49
2022/12/19 09:09:20;;;;;;;31.20;14.77;;;-0.60;99.90;;;;;;5256938;28;20197;-48
2022/12/19 09:11:51;;;;;;;37.50;16.10;;;-0.80;99.90;;;;;;5252098;28;20177;-48
2022/12/19 09:14:21;;;;;;;31.97;14.30;;;-0.90;99.90;;;;;;5257348;28;20213;-48
2022/12/19 09:16:52;;;;;;;39.93;17.40;;;-0.90;99.90;;;;;;5260250;28;20259;-50
2022/12/19 09:19:22;;;;;;;34.23;15.00;;;-0.80;99.90;;;;;;5260710;28;20181;-50
2022/12/19 09:21:53;;;;;;;43.60;17.80;;;-0.80;99.90;;;;;;5262110;28;20185;-49
2022/12/19 09:24:24;;;;;;;35.20;14.37;;;-0.80;99.90;;;;;;5255009;28;20217;-48
2022/12/19 09:26:54;;;;;;;38.30;16.40;;;-0.80;99.90;;;;;;5256183;28;20189;-53
2022/12/19 09:29:25;;;;;;;30.83;15.27;;;-0.70;99.90;;;;;;5265448;28;20181;-51
2022/12/19 09:31:56;;;;;;;34.37;15.23;;;-0.70;99.90;;;;;;5245886;28;20192;-49
2022/12/19 09:34:27;;;;;;;29.90;14.77;;;-0.60;99.90;;;;;;5259124;28;20869;-50
2022/12/19 09:36:58;;;;;;;31.63;14.63;;;-0.50;99.90;;;;;;5260166;28;20276;-51
2022/12/19 09:39:28;;;;;;;28.30;14.27;;;-0.60;99.90;;;;;;5261269;28;20524;-51
2022/12/19 09:42:06;;;;;;;31.83;14.13;;;-0.40;99.90;;;;;;5265751;28;20197;-48
2022/12/19 09:45:07;;;;;;;33.67;14.97;;;-0.40;99.90;;;;;;5263011;28;20208;-48
2022/12/19 09:47:42;;;;;;;31.33;15.10;;;-0.30;99.90;;;;;;5257933;28;20465;-50
2022/12/19 09:50:23;;;;;;;31.97;15.30;;;-0.10;99.90;;;;;;5273097;28;20570;-49
2022/12/19 09:53:04;;;;;;;46.77;16.67;;;0.00;99.90;;;;;;5258760;28;20455;-50
2022/12/19 09:55:39;;;;;;;41.77;17.20;;;0.10;99.90;;;;;;5258562;28;20466;-53
2022/12/19 09:58:30;;;;;;;33.07;15.90;;;0.10;99.90;;;;;;5262187;28;20964;-51
2022/12/19 10:01:06;;;;;;;36.07;15.77;;;0.20;99.90;;;;;;5261263;28;20443;-50
2022/12/19 10:03:44;;;;;;;29.50;14.73;;;0.30;99.90;;;;;;5264386;28;20491;-52
2022/12/19 10:06:20;;;;;;;35.43;16.37;;;0.40;99.90;;;;;;5263638;28;20436;-49
2022/12/19 10:08:52;;;;;;;36.73;15.33;;;0.50;99.90;;;;;;5267645;28;20519;-49
2022/12/19 10:11:49;;;;;;;27.63;14.47;;;0.30;99.90;;;;;;5261202;28;20436;-48
2022/12/19 10:14:42;;;;;;;30.47;15.27;;;0.30;99.90;;;;;;5264019;28;20922;-48
2022/12/19 10:17:45;;;;;;;35.67;15.87;;;0.30;99.90;;;;;;5260006;28;20428;-50
2022/12/19 10:20:28;;;;;;;37.80;15.37;;;0.40;99.90;;;;;;5214512;28;20440;-50
2022/12/19 10:23:25;;;;;;;33.20;15.80;;;0.70;99.90;;;;;;5260925;28;20481;-49
2022/12/19 10:26:05;;;;;;;29.27;14.50;;;0.80;99.90;;;;;;5275271;27;20539;-54
2022/12/19 10:28:38;;;;;;;32.93;15.17;;;0.80;99.90;;;;;;5248661;28;20956;-49
2022/12/19 10:31:12;;;;;;;33.10;15.07;;;0.90;99.90;;;;;;5263048;28;20638;-50
2022/12/19 10:34:05;;;;;;;37.37;15.93;;;1.00;99.90;;;;;;5263612;28;20975;-50
2022/12/19 10:36:45;;;;;;;36.77;16.57;;;1.20;99.90;;;;;;5265204;28;20431;-51
2022/12/19 10:39:42;;;;;;;30.27;13.17;;;1.20;99.90;;;;;;5265442;28;20442;-50
2022/12/19 10:42:41;;;;;;;37.83;16.47;;;1.50;99.90;;;;;;5262167;28;20433;-48
2022/12/19 10:45:18;;;;;;;38.50;16.60;;;1.50;99.90;;;;;;5241810;28;20566;-52
2022/12/19 10:47:55;;;;;;;35.90;15.70;;;1.60;99.90;;;;;;5266279;28;20479;-50
2022/12/19 10:50:28;;;;;;;36.90;16.13;;;1.70;99.90;;;;;;5259301;28;21034;-50
2022/12/19 10:53:02;;;;;;;32.07;14.93;;;1.80;99.90;;;;;;5254792;28;20499;-50
2022/12/19 10:55:52;;;;;;;39.10;17.20;;;1.90;99.90;;;;;;5260529;28;20536;-52
2022/12/19 10:58:30;;;;;;;37.37;16.10;;;2.00;99.90;;;;;;5258459;28;21528;-51
2022/12/19 11:01:22;;;;;;;37.40;15.97;;;2.10;99.90;;;;;;5263182;28;20435;-51
2022/12/19 11:04:31;;;;;;;34.70;15.33;;;2.20;99.90;;;;;;5279140;27;20464;-50
2022/12/19 11:07:02;;;;;;;29.83;15.40;;;2.20;99.90;;;;;;5255768;28;20435;-50
2022/12/19 11:09:37;;;;;;;31.93;14.97;;;2.30;99.90;;;;;;5259515;28;20455;-52
2022/12/19 11:12:07;;;;;;;39.40;16.30;;;2.10;99.90;;;;;;5271938;27;20655;-52
2022/12/19 11:14:42;;;;;;;28.57;15.30;;;2.10;99.90;;;;;;5259930;28;20466;-51
2022/12/19 11:17:25;;;;;;;29.77;16.67;;;2.00;99.90;;;;;;5258890;28;20193;-48
2022/12/19 11:19:56;;;;;;;36.20;16.77;;;1.90;99.90;;;;;;5257441;28;20474;-49
2022/12/19 11:22:35;;;;;;;33.83;15.93;;;1.80;99.90;;;;;;5259567;28;20475;-50
2022/12/19 11:25:13;;;;;;;34.00;14.97;;;1.70;99.90;;;;;;5254863;28;20563;-52
2022/12/19 11:27:47;;;;;;;34.13;15.77;;;1.50;99.90;;;;;;5256104;28;20449;-51
2022/12/19 11:30:21;;;;;;;25.93;14.80;;;1.40;99.90;;;;;;5257654;28;20513;-48
2022/12/19 11:33:12;;;;;;;34.43;16.03;;;1.60;99.90;;;;;;5259669;28;20431;-49
2022/12/19 11:35:49;;;;;;;31.80;15.73;;;1.60;99.90;;;;;;5258201;28;20442;-49
2022/12/19 11:38:44;;;;;;;46.33;21.20;;;1.50;99.90;;;;;;5261167;28;20816;-50
2022/12/19 11:41:44;;;;;;;41.33;17.83;;;1.50;99.90;;;;;;5257369;28;20871;-49
2022/12/19 11:44:29;;;;;;;39.70;17.13;;;1.50;99.90;;;;;;5252973;28;20471;-49
2022/12/19 11:47:11;;;;;;;47.77;20.27;;;1.50;99.90;;;;;;5256141;28;20463;-50
2022/12/19 11:49:50;;;;;;;40.87;20.13;;;1.40;99.90;;;;;;5259101;28;20488;-48
2022/12/19 11:52:39;;;;;;;44.50;19.50;;;1.50;99.90;;;;;;5257676;28;20559;-49
2022/12/19 11:55:25;;;;;;;51.50;18.73;;;1.50;99.90;;;;;;5258283;28;20448;-49
2022/12/19 11:57:57;;;;;;;41.27;19.37;;;1.50;99.90;;;;;;5256773;28;20492;-51
2022/12/19 12:00:29;;;;;;;37.10;18.77;;;1.40;99.90;;;;;;5252697;28;20444;-47
2022/12/19 12:03:18;;;;;;;42.20;18.23;;;1.40;99.90;;;;;;5256480;28;20814;-51
2022/12/19 12:05:50;;;;;;;40.90;20.40;;;1.50;99.90;;;;;;5257342;28;20616;-49
2022/12/19 12:08:42;;;;;;;47.37;20.33;;;1.40;99.90;;;;;;5275348;28;20439;-47
2022/12/19 12:11:50;;;;;;;50.57;19.77;;;1.40;99.90;;;;;;5257620;28;20444;-49
2022/12/19 12:14:55;;;;;;;36.87;16.77;;;1.40;99.90;;;;;;5259393;28;20992;-49
2022/12/19 12:17:55;;;;;;;38.07;18.27;;;1.30;99.90;;;;;;5261481;28;20465;-50
2022/12/19 12:20:35;;;;;;;33.03;17.03;;;1.20;99.90;;;;;;5253424;28;20481;-49
2022/12/19 12:23:35;;;;;;;35.13;15.70;;;1.20;99.90;;;;;;5255368;28;20971;-50
2022/12/19 12:26:17;;;;;;;34.10;18.07;;;1.20;99.90;;;;;;5261926;28;20447;-48
2022/12/19 12:28:57;;;;;;;34.10;18.57;;;1.30;99.90;;;;;;5256111;28;20432;-48
2022/12/19 12:31:49;;;;;;;35.93;17.73;;;1.30;99.90;;;;;;5258692;28;20434;-50
2022/12/19 12:34:55;;;;;;;32.47;17.27;;;1.10;99.90;;;;;;5274139;28;21040;-48
2022/12/19 12:37:51;;;;;;;36.27;17.90;;;1.20;99.90;;;;;;5228485;28;20535;-48
2022/12/19 12:40:41;;;;;;;46.00;17.87;;;1.30;99.90;;;;;;5257583;28;20432;-48
2022/12/19 12:43:37;;;;;;;49.73;18.03;;;1.30;99.90;;;;;;5254646;28;20454;-50
2022/12/19 12:46:18;;;;;;;42.03;18.27;;;1.20;99.90;;;;;;5255359;28;20480;-48
2022/12/19 12:48:59;;;;;;;34.00;17.80;;;1.30;99.90;;;;;;5254046;28;20428;-48
2022/12/19 12:51:32;;;;;;;38.87;17.47;;;1.10;99.90;;;;;;5254910;28;20435;-48
2022/12/19 12:54:10;;;;;;;43.67;16.57;;;1.20;99.90;;;;;;5258775;28;20509;-50
2022/12/19 12:56:43;;;;;;;29.10;16.73;;;1.10;99.90;;;;;;5257772;28;20434;-51
2022/12/19 12:59:19;;;;;;;50.83;18.93;;;1.30;99.90;;;;;;5259990;28;20436;-48
2022/12/19 13:02:12;;;;;;;38.70;16.47;;;1.40;99.90;;;;;;5252438;28;21096;-50
2022/12/19 13:04:57;;;;;;;35.37;16.30;;;1.40;99.90;;;;;;5261539;28;20559;-48
2022/12/19 13:07:42;;;;;;;34.50;16.33;;;1.40;99.90;;;;;;5250940;28;20447;-48
2022/12/19 13:10:29;;;;;;;35.17;17.00;;;1.50;99.90;;;;;;5257121;28;20478;-51
2022/12/19 13:13:07;;;;;;;37.67;18.63;;;1.40;99.90;;;;;;5257623;28;21122;-52
2022/12/19 13:15:40;;;;;;;30.37;17.10;;;1.40;99.90;;;;;;5254450;28;20507;-49